createdAt,value
2023-03-28T00:00:47.389Z,99202.47
2023-03-28T00:03:14.665Z,99212.16
2023-03-28T00:05:41.451Z,99215.19
2023-03-28T00:08:08.322Z,99212.72
2023-03-28T00:10:35.082Z,99223.00
2023-03-28T00:13:01.566Z,99213.50
2023-03-28T00:15:35.083Z,99232.34
2023-03-28T00:18:01.678Z,99238.84
2023-03-28T00:20:32.226Z,99238.16
2023-03-28T00:22:58.774Z,99227.84
2023-03-28T00:25:25.422Z,99237.97
2023-03-28T00:27:52.080Z,99245.19
2023-03-28T00:30:18.661Z,99251.09
2023-03-28T00:32:45.450Z,99243.34
2023-03-28T00:35:12.840Z,99245.03
2023-03-28T00:37:41.896Z,99251.94
2023-03-28T00:40:09.780Z,99251.59
2023-03-28T00:42:43.806Z,99250.97
2023-03-28T00:45:11.614Z,99268.81
2023-03-28T00:47:45.807Z,99287.06
2023-03-28T00:50:30.929Z,99272.47
2023-03-28T00:53:04.267Z,99267.25
2023-03-28T00:55:37.125Z,99280.16
2023-03-28T00:58:09.913Z,99266.06
2023-03-28T01:00:43.276Z,99251.50
2023-03-28T01:03:16.285Z,99287.91
2023-03-28T01:05:44.573Z,99273.22
2023-03-28T01:08:19.049Z,99269.41
2023-03-28T01:10:46.125Z,99288.47
2023-03-28T01:13:15.696Z,99304.53
2023-03-28T01:15:44.189Z,99301.19
2023-03-28T01:18:11.932Z,99270.28
2023-03-28T01:20:46.709Z,99278.19
2023-03-28T01:23:28.279Z,99282.72
2023-03-28T01:26:01.237Z,99279.34
2023-03-28T01:28:53.202Z,99261.84
2023-03-28T01:31:48.203Z,99271.28
2023-03-28T01:34:32.925Z,99278.03
2023-03-28T01:37:03.264Z,99227.03
2023-03-28T01:40:00.400Z,99268.41
2023-03-28T01:42:47.485Z,99257.41
2023-03-28T01:45:56.798Z,99254.88
2023-03-28T01:48:50.443Z,99212.69
2023-03-28T01:51:38.196Z,99263.09
2023-03-28T01:54:41.190Z,99260.03
2023-03-28T01:57:16.392Z,99254.97
2023-03-28T01:59:52.079Z,99257.84
2023-03-28T02:02:39.226Z,99259.25
2023-03-28T02:05:11.837Z,99267.84
2023-03-28T02:07:45.358Z,99262.00
2023-03-28T02:10:16.138Z,99274.72
2023-03-28T02:13:05.477Z,99271.94
2023-03-28T02:15:32.862Z,99280.22
2023-03-28T02:18:08.449Z,99290.38
2023-03-28T02:20:37.728Z,99284.69
2023-03-28T02:23:11.308Z,99294.28
2023-03-28T02:25:39.123Z,99282.97
2023-03-28T02:28:09.016Z,99259.88
2023-03-28T02:30:36.363Z,99296.22
2023-03-28T02:33:09.499Z,99293.78
2023-03-28T02:36:17.748Z,99294.69
2023-03-28T02:38:47.148Z,99292.84
2023-03-28T02:41:19.258Z,99285.00
2023-03-28T02:43:51.712Z,99299.91
2023-03-28T02:46:29.752Z,99279.78
2023-03-28T02:49:14.672Z,99291.44
2023-03-28T02:51:49.739Z,99307.75
2023-03-28T02:55:00.541Z,99301.34
2023-03-28T02:57:29.606Z,99301.78
2023-03-28T03:00:07.597Z,99304.88
2023-03-28T03:02:34.230Z,99304.66
2023-03-28T03:05:01.878Z,99314.00
2023-03-28T03:07:28.528Z,99301.03
2023-03-28T03:09:55.006Z,99315.75
2023-03-28T03:12:23.292Z,99313.69
2023-03-28T03:14:53.373Z,99294.97
2023-03-28T03:17:20.925Z,99323.19
2023-03-28T03:19:47.364Z,99334.44
2023-03-28T03:22:20.850Z,99322.78
2023-03-28T03:24:51.061Z,99306.03
2023-03-28T03:27:19.379Z,99302.00
2023-03-28T03:29:46.684Z,99318.03
2023-03-28T03:32:13.362Z,99314.41
2023-03-28T03:34:43.592Z,99292.72
2023-03-28T03:37:12.496Z,99318.34
2023-03-28T03:39:39.317Z,99299.41
2023-03-28T03:42:07.289Z,99307.53
2023-03-28T03:44:33.942Z,99297.56
2023-03-28T03:47:00.967Z,99304.25
2023-03-28T03:49:27.488Z,99286.28
2023-03-28T03:51:54.289Z,99276.72
2023-03-28T03:54:20.882Z,99297.78
2023-03-28T03:56:48.692Z,99287.16
2023-03-28T03:59:16.370Z,99306.69
2023-03-28T04:01:44.263Z,99306.53
2023-03-28T04:04:14.502Z,99307.53
2023-03-28T04:06:41.110Z,99307.13
2023-03-28T04:09:09.451Z,99303.44
2023-03-28T04:11:36.528Z,99302.81
2023-03-28T04:14:03.183Z,99263.44
2023-03-28T04:16:40.485Z,99313.25
2023-03-28T04:19:12.377Z,99300.66
2023-03-28T04:21:42.897Z,99304.91
2023-03-28T04:24:09.585Z,99310.56
2023-03-28T04:26:38.260Z,99297.56
2023-03-28T04:29:06.366Z,99303.88
2023-03-28T04:31:35.886Z,99320.22
2023-03-28T04:34:03.709Z,99318.94
2023-03-28T04:36:30.597Z,99335.97
2023-03-28T04:38:59.279Z,99319.34
2023-03-28T04:41:26.253Z,99322.69
2023-03-28T04:43:53.138Z,99324.16
2023-03-28T04:46:20.071Z,99327.09
2023-03-28T04:48:47.309Z,99336.16
2023-03-28T04:51:15.091Z,99328.00
2023-03-28T04:53:41.621Z,99318.22
2023-03-28T04:56:08.938Z,99344.13
2023-03-28T04:58:36.637Z,99336.38
2023-03-28T05:01:03.474Z,99350.84
2023-03-28T05:03:32.208Z,99349.94
2023-03-28T05:05:58.851Z,99329.81
2023-03-28T05:08:28.706Z,99346.63
2023-03-28T05:10:58.555Z,99344.13
2023-03-28T05:13:29.277Z,99334.34
2023-03-28T05:15:55.897Z,99327.22
2023-03-28T05:18:22.654Z,99341.22
2023-03-28T05:20:49.301Z,99323.34
2023-03-28T05:23:15.905Z,99349.09
2023-03-28T05:25:42.630Z,99328.38
2023-03-28T05:28:09.605Z,99330.97
2023-03-28T05:30:36.687Z,99347.22
2023-03-28T05:33:03.449Z,99335.09
2023-03-28T05:35:30.065Z,99350.66
2023-03-28T05:37:57.551Z,99354.13
2023-03-28T05:40:26.721Z,99350.75
2023-03-28T05:42:53.432Z,99345.69
2023-03-28T05:45:20.498Z,99349.25
2023-03-28T05:47:47.268Z,99349.38
2023-03-28T05:50:13.896Z,99356.97
2023-03-28T05:52:40.560Z,99363.91
2023-03-28T05:55:07.729Z,99356.13
2023-03-28T05:57:35.219Z,99361.81
2023-03-28T06:00:03.810Z,99365.97
2023-03-28T06:02:31.374Z,99376.91
2023-03-28T06:04:58.222Z,99367.66
2023-03-28T06:07:35.259Z,99365.34
2023-03-28T06:10:08.867Z,99383.91
2023-03-28T06:12:35.638Z,99389.28
2023-03-28T06:15:02.453Z,99404.16
2023-03-28T06:17:29.187Z,99400.09
2023-03-28T06:19:56.017Z,99383.06
2023-03-28T06:22:23.847Z,99395.06
2023-03-28T06:24:50.509Z,99416.75
2023-03-28T06:27:16.974Z,99430.72
2023-03-28T06:29:43.518Z,99430.72
2023-03-28T06:32:10.246Z,99439.88
2023-03-28T06:34:37.347Z,99441.28
2023-03-28T06:37:04.240Z,99449.53
2023-03-28T06:39:31.151Z,99477.38
2023-03-28T06:41:58.332Z,99478.28
2023-03-28T06:44:24.765Z,99489.34
2023-03-28T06:46:51.415Z,99486.84
2023-03-28T06:49:18.037Z,99507.94
2023-03-28T06:51:44.551Z,99507.09
2023-03-28T06:54:11.092Z,99513.41
2023-03-28T06:56:37.537Z,99534.38
2023-03-28T06:59:05.003Z,99551.81
2023-03-28T07:01:31.577Z,99571.41
2023-03-28T07:03:59.641Z,99575.22
2023-03-28T07:06:27.736Z,99583.97
2023-03-28T07:08:58.385Z,99611.22
2023-03-28T07:11:24.869Z,99597.22
2023-03-28T07:13:51.352Z,99610.13
2023-03-28T07:16:18.733Z,99639.38
2023-03-28T07:18:45.557Z,99646.22
2023-03-28T07:21:14.406Z,99660.66
2023-03-28T07:23:41.171Z,99668.31
2023-03-28T07:26:09.657Z,99690.06
2023-03-28T07:28:36.590Z,99706.25
2023-03-28T07:31:05.194Z,99719.78
2023-03-28T07:33:37.137Z,99712.59
2023-03-28T07:36:13.725Z,99709.56
2023-03-28T07:38:40.294Z,99719.41
2023-03-28T07:41:08.381Z,99739.06
2023-03-28T07:43:35.776Z,99751.47
2023-03-28T07:46:06.644Z,99740.44
2023-03-28T07:48:34.997Z,99752.69
2023-03-28T07:51:02.497Z,99747.78
2023-03-28T07:53:29.776Z,99770.28
2023-03-28T07:55:56.619Z,99780.75
2023-03-28T07:58:24.249Z,99809.66
2023-03-28T08:00:50.967Z,99834.09
2023-03-28T08:03:18.919Z,99841.94
2023-03-28T08:05:51.710Z,99831.81
2023-03-28T08:08:20.079Z,99839.38
2023-03-28T08:10:53.532Z,99845.13
2023-03-28T08:13:21.228Z,99872.44
2023-03-28T08:16:06.356Z,99852.59
2023-03-28T08:18:32.803Z,99860.78
2023-03-28T08:21:03.094Z,99865.25
2023-03-28T08:23:30.064Z,99867.03
2023-03-28T08:26:05.130Z,99861.63
2023-03-28T08:28:33.696Z,99863.88
2023-03-28T08:31:00.938Z,99893.25
2023-03-28T08:33:29.192Z,99896.75
2023-03-28T08:35:56.971Z,99896.56
2023-03-28T08:38:24.203Z,99895.72
2023-03-28T08:41:22.993Z,99924.53
2023-03-28T08:44:23.656Z,99941.25
2023-03-28T08:47:16.472Z,99943.06
2023-03-28T08:50:21.768Z,99961.47
2023-03-28T08:52:48.467Z,99977.06
2023-03-28T08:55:58.259Z,99977.44
2023-03-28T08:58:35.044Z,99991.22
2023-03-28T09:01:02.130Z,99996.28
2023-03-28T09:03:29.523Z,100005.91
2023-03-28T09:06:18.136Z,99995.47
2023-03-28T09:09:00.800Z,100003.28
2023-03-28T09:11:55.136Z,99998.41
2023-03-28T09:14:34.782Z,100005.34
2023-03-28T09:17:28.249Z,100003.19
2023-03-28T09:20:13.440Z,100010.13
2023-03-28T09:22:49.868Z,100001.59
2023-03-28T09:25:54.705Z,100004.78
2023-03-28T09:28:52.029Z,100007.25
2023-03-28T09:31:27.136Z,100003.00
2023-03-28T09:33:55.863Z,100008.78
2023-03-28T09:36:37.472Z,100004.59
2023-03-28T09:39:36.827Z,100014.84
2023-03-28T09:42:16.192Z,100007.41
2023-03-28T09:44:54.560Z,100014.66
2023-03-28T09:47:22.383Z,99998.44
2023-03-28T09:49:54.341Z,100007.59
2023-03-28T09:52:26.511Z,100003.59
2023-03-28T09:54:53.369Z,100011.34
2023-03-28T09:57:19.947Z,100028.81
2023-03-28T09:59:46.448Z,100029.22
2023-03-28T10:02:27.510Z,100009.75
2023-03-28T10:04:54.927Z,100021.56
2023-03-28T10:07:32.009Z,100023.78
2023-03-28T10:09:59.036Z,100011.19
2023-03-28T10:12:37.917Z,100024.56
2023-03-28T10:15:07.838Z,100023.69
2023-03-28T10:17:37.459Z,100021.84
2023-03-28T10:20:16.619Z,100020.63
2023-03-28T10:22:46.885Z,100021.25
2023-03-28T10:25:19.084Z,100012.50
2023-03-28T10:27:45.677Z,100014.22
2023-03-28T10:30:28.036Z,100009.63
2023-03-28T10:33:10.060Z,99997.00
2023-03-28T10:35:41.424Z,100004.94
2023-03-28T10:38:20.016Z,100012.00
2023-03-28T10:41:02.037Z,100017.19
2023-03-28T10:43:34.952Z,100016.91
2023-03-28T10:46:04.144Z,100015.69
2023-03-28T10:48:33.955Z,100011.69
2023-03-28T10:51:08.425Z,100016.56
2023-03-28T10:53:53.207Z,100017.63
2023-03-28T10:56:23.584Z,99998.09
2023-03-28T10:59:04.957Z,100000.81
2023-03-28T11:02:13.013Z,100009.28
2023-03-28T11:05:09.640Z,100007.50
2023-03-28T11:08:01.682Z,99990.97
2023-03-28T11:10:37.386Z,99977.78
2023-03-28T11:13:21.847Z,99969.66
2023-03-28T11:16:15.685Z,99987.16
2023-03-28T11:19:11.325Z,99955.53
2023-03-28T11:21:59.681Z,99963.41
2023-03-28T11:24:41.978Z,99980.09
2023-03-28T11:27:22.047Z,99977.94
2023-03-28T11:30:06.626Z,99978.59
2023-03-28T11:32:56.002Z,99979.19
2023-03-28T11:35:33.243Z,99969.44
2023-03-28T11:38:22.410Z,99975.09
2023-03-28T11:41:02.187Z,99973.78
2023-03-28T11:43:47.824Z,99977.00
2023-03-28T11:46:24.672Z,99944.16
2023-03-28T11:49:06.474Z,99964.84
2023-03-28T11:51:41.499Z,99964.88
2023-03-28T11:54:20.576Z,99964.00
2023-03-28T11:57:07.625Z,99968.34
2023-03-28T11:59:52.853Z,99959.41
2023-03-28T12:02:38.003Z,99963.25
2023-03-28T12:05:15.433Z,99956.88
2023-03-28T12:07:49.735Z,99955.44
2023-03-28T12:10:36.658Z,99945.09
2023-03-28T12:13:23.044Z,99951.44
2023-03-28T12:15:54.314Z,99950.16
2023-03-28T12:18:33.331Z,99937.41
2023-03-28T12:21:11.152Z,99932.06
2023-03-28T12:23:48.868Z,99946.88
2023-03-28T12:26:30.347Z,99961.59
2023-03-28T12:29:01.894Z,99951.38
2023-03-28T12:31:51.399Z,99943.97
2023-03-28T12:34:24.211Z,99945.72
2023-03-28T12:37:12.705Z,99929.13
2023-03-28T12:39:51.451Z,99927.13
2023-03-28T12:42:21.247Z,99926.53
2023-03-28T12:44:54.815Z,99936.78
2023-03-28T12:47:26.395Z,99933.25
2023-03-28T12:49:59.704Z,99922.00
2023-03-28T12:52:32.739Z,99903.81
2023-03-28T12:55:07.982Z,99904.03
2023-03-28T12:57:40.648Z,99898.84
2023-03-28T13:00:16.552Z,99908.00
2023-03-28T13:03:05.481Z,99909.69
2023-03-28T13:05:57.455Z,99911.50
2023-03-28T13:08:34.617Z,99908.78
2023-03-28T13:11:20.549Z,99913.13
2023-03-28T13:13:59.283Z,99918.03
2023-03-28T13:16:57.966Z,99921.34
2023-03-28T13:19:43.428Z,99919.00
2023-03-28T13:22:25.671Z,99913.78
2023-03-28T13:24:52.182Z,99917.22
2023-03-28T13:27:33.366Z,99913.94
2023-03-28T13:30:05.119Z,99861.34
2023-03-28T13:32:43.063Z,99906.16
2023-03-28T13:35:42.237Z,99895.03
2023-03-28T13:38:35.387Z,99892.59
2023-03-28T13:41:12.042Z,99878.47
2023-03-28T13:43:46.208Z,99879.72
2023-03-28T13:46:23.842Z,99879.97
2023-03-28T13:49:01.201Z,99879.53
2023-03-28T13:51:33.768Z,99885.06
2023-03-28T13:54:02.615Z,99873.19
2023-03-28T13:56:36.170Z,99875.44
2023-03-28T13:59:04.460Z,99887.56
2023-03-28T14:01:52.319Z,99876.41
2023-03-28T14:04:25.896Z,99877.13
2023-03-28T14:06:53.011Z,99886.31
2023-03-28T14:09:28.344Z,99871.72
2023-03-28T14:12:12.907Z,99872.75
2023-03-28T14:14:45.988Z,99867.00
2023-03-28T14:17:17.465Z,99862.00
2023-03-28T14:19:53.067Z,99861.94
2023-03-28T14:22:24.142Z,99879.25
2023-03-28T14:24:52.859Z,99861.16
2023-03-28T14:27:36.549Z,99862.59
2023-03-28T14:30:18.891Z,99847.53
2023-03-28T14:33:16.295Z,99840.66
2023-03-28T14:35:43.346Z,99838.47
2023-03-28T14:38:14.768Z,99831.00
2023-03-28T14:40:43.247Z,99832.44
2023-03-28T14:43:10.285Z,99833.00
2023-03-28T14:45:39.241Z,99842.75
2023-03-28T14:48:09.210Z,99837.31
2023-03-28T14:50:39.379Z,99842.56
2023-03-28T14:53:09.485Z,99840.94
2023-03-28T14:55:39.136Z,99830.09
2023-03-28T14:58:06.776Z,99820.78
2023-03-28T15:00:43.779Z,99834.63
2023-03-28T15:03:20.298Z,99829.28
2023-03-28T15:05:51.951Z,99823.88
2023-03-28T15:08:28.289Z,99836.63
2023-03-28T15:10:55.669Z,99832.22
2023-03-28T15:13:33.353Z,99806.50
2023-03-28T15:16:00.266Z,99819.78
2023-03-28T15:18:33.547Z,99814.91
2023-03-28T15:21:13.135Z,99815.88
2023-03-28T15:23:53.695Z,99827.66
2023-03-28T15:26:31.835Z,99813.66
2023-03-28T15:28:58.970Z,99803.13
2023-03-28T15:31:27.222Z,99801.94
2023-03-28T15:33:54.987Z,99795.38
2023-03-28T15:36:32.541Z,99797.56
2023-03-28T15:39:02.022Z,99779.09
2023-03-28T15:41:34.612Z,99780.34
2023-03-28T15:44:25.305Z,99788.50
2023-03-28T15:46:54.325Z,99785.72
2023-03-28T15:49:20.940Z,99782.13
2023-03-28T15:52:05.648Z,99761.91
2023-03-28T15:54:39.960Z,99760.97
2023-03-28T15:57:10.768Z,99769.22
2023-03-28T15:59:41.282Z,99755.66
2023-03-28T16:02:25.589Z,99746.78
2023-03-28T16:05:01.602Z,99755.94
2023-03-28T16:07:50.831Z,99752.88
2023-03-28T16:10:23.088Z,99758.28
2023-03-28T16:12:52.413Z,99743.09
2023-03-28T16:15:20.068Z,99751.19
2023-03-28T16:17:47.408Z,99750.25
2023-03-28T16:20:23.056Z,99741.28
2023-03-28T16:22:49.726Z,99743.28
2023-03-28T16:25:16.371Z,99747.09
2023-03-28T16:27:45.899Z,99737.91
2023-03-28T16:30:31.054Z,99741.41
2023-03-28T16:32:57.675Z,99749.44
2023-03-28T16:35:27.176Z,99743.94
2023-03-28T16:37:53.820Z,99727.34
2023-03-28T16:40:20.763Z,99738.88
2023-03-28T16:42:48.891Z,99737.53
2023-03-28T16:45:16.027Z,99708.69
2023-03-28T16:47:42.774Z,99743.72
2023-03-28T16:50:09.924Z,99728.00
2023-03-28T16:52:42.341Z,99741.81
2023-03-28T16:55:11.332Z,99722.81
2023-03-28T16:57:38.158Z,99734.81
2023-03-28T17:00:07.314Z,99723.75
2023-03-28T17:02:33.940Z,99730.34
2023-03-28T17:05:00.736Z,99720.88
2023-03-28T17:07:27.594Z,99723.06
2023-03-28T17:09:54.355Z,99709.38
2023-03-28T17:12:21.307Z,99719.25
2023-03-28T17:14:47.883Z,99714.19
2023-03-28T17:17:14.435Z,99712.22
2023-03-28T17:19:41.016Z,99708.19
2023-03-28T17:22:07.958Z,99707.16
2023-03-28T17:24:34.981Z,99694.16
2023-03-28T17:27:01.619Z,99698.88
2023-03-28T17:29:28.590Z,99695.38
2023-03-28T17:31:55.282Z,99692.94
2023-03-28T17:34:22.174Z,99686.78
2023-03-28T17:36:51.056Z,99695.22
2023-03-28T17:39:17.569Z,99688.56
2023-03-28T17:41:44.181Z,99647.81
2023-03-28T17:44:10.814Z,99677.50
2023-03-28T17:46:37.757Z,99671.53
2023-03-28T17:49:04.402Z,99676.56
2023-03-28T17:51:36.042Z,99672.59
2023-03-28T17:54:04.538Z,99670.88
2023-03-28T17:56:34.321Z,99662.47
2023-03-28T17:59:00.767Z,99665.00
2023-03-28T18:01:27.531Z,99686.78
2023-03-28T18:03:54.241Z,99661.28
2023-03-28T18:06:21.370Z,99664.41
2023-03-28T18:08:48.330Z,99669.72
2023-03-28T18:11:17.647Z,99663.41
2023-03-28T18:13:45.005Z,99668.28
2023-03-28T18:16:15.100Z,99670.19
2023-03-28T18:18:41.953Z,99679.00
2023-03-28T18:21:08.752Z,99665.97
2023-03-28T18:23:39.323Z,99667.31
2023-03-28T18:26:06.833Z,99665.44
2023-03-28T18:28:33.729Z,99664.53
2023-03-28T18:31:14.053Z,99663.56
2023-03-28T18:33:45.110Z,99663.91
2023-03-28T18:36:13.460Z,99659.97
2023-03-28T18:38:42.737Z,99658.31
2023-03-28T18:41:10.728Z,99659.97
2023-03-28T18:43:38.583Z,99655.47
2023-03-28T18:46:08.169Z,99649.28
2023-03-28T18:48:35.051Z,99647.78
2023-03-28T18:51:06.481Z,99641.72
2023-03-28T18:53:33.849Z,99652.44
2023-03-28T18:56:01.752Z,99647.09
2023-03-28T18:58:28.488Z,99641.78
2023-03-28T19:01:02.520Z,99638.94
2023-03-28T19:03:32.065Z,99638.09
2023-03-28T19:06:01.228Z,99630.50
2023-03-28T19:08:29.777Z,99613.09
2023-03-28T19:10:58.654Z,99609.25
2023-03-28T19:13:26.203Z,99610.50
2023-03-28T19:16:15.113Z,99604.28
2023-03-28T19:18:50.685Z,99598.50
2023-03-28T19:21:17.219Z,99591.69
2023-03-28T19:23:44.391Z,99609.97
2023-03-28T19:26:12.756Z,99609.00
2023-03-28T19:28:39.694Z,99594.97
2023-03-28T19:31:08.084Z,99593.38
2023-03-28T19:33:36.530Z,99575.44
2023-03-28T19:36:05.748Z,99567.69
2023-03-28T19:38:35.357Z,99566.22
2023-03-28T19:41:08.493Z,99569.84
2023-03-28T19:43:36.440Z,99553.75
2023-03-28T19:46:07.951Z,99565.66
2023-03-28T19:48:35.060Z,99530.78
2023-03-28T19:51:02.403Z,99567.00
2023-03-28T19:53:29.270Z,99569.97
2023-03-28T19:55:58.948Z,99563.78
2023-03-28T19:58:27.032Z,99567.19
2023-03-28T20:00:59.778Z,99557.84
2023-03-28T20:03:26.772Z,99567.19
2023-03-28T20:05:53.394Z,99561.56
2023-03-28T20:08:21.386Z,99553.28
2023-03-28T20:10:50.134Z,99554.75
2023-03-28T20:13:17.318Z,99557.66
2023-03-28T20:15:45.194Z,99537.81
2023-03-28T20:18:20.446Z,99549.78
2023-03-28T20:20:57.079Z,99558.03
2023-03-28T20:23:25.399Z,99557.50
2023-03-28T20:25:53.367Z,99561.44
2023-03-28T20:28:21.470Z,99560.13
2023-03-28T20:30:48.095Z,99563.50
2023-03-28T20:33:14.594Z,99564.44
2023-03-28T20:35:41.980Z,99563.69
2023-03-28T20:38:09.839Z,99555.63
2023-03-28T20:40:40.312Z,99562.56
2023-03-28T20:43:10.141Z,99558.16
2023-03-28T20:45:45.975Z,99549.06
2023-03-28T20:48:16.828Z,99554.69
2023-03-28T20:50:46.205Z,99557.69
2023-03-28T20:53:12.771Z,99541.75
2023-03-28T20:55:40.547Z,99540.72
2023-03-28T20:58:08.988Z,99532.47
2023-03-28T21:00:35.964Z,99532.28
2023-03-28T21:03:03.705Z,99529.53
2023-03-28T21:05:30.403Z,99521.00
2023-03-28T21:07:59.157Z,99525.31
2023-03-28T21:10:25.784Z,99516.03
2023-03-28T21:12:52.520Z,99517.25
2023-03-28T21:15:18.957Z,99511.34
2023-03-28T21:17:49.196Z,99519.41
2023-03-28T21:20:15.805Z,99520.72
2023-03-28T21:22:42.597Z,99513.97
2023-03-28T21:25:14.617Z,99515.47
2023-03-28T21:27:41.329Z,99503.16
2023-03-28T21:30:08.579Z,99513.97
2023-03-28T21:32:35.913Z,99512.09
2023-03-28T21:35:04.149Z,99512.94
2023-03-28T21:37:31.059Z,99512.09
2023-03-28T21:39:57.636Z,99506.00
2023-03-28T21:42:24.833Z,99509.69
2023-03-28T21:44:52.039Z,99488.59
2023-03-28T21:47:18.507Z,99501.16
2023-03-28T21:49:46.149Z,99504.63
2023-03-28T21:52:17.392Z,99499.19
2023-03-28T21:54:43.902Z,99509.75
2023-03-28T21:57:11.396Z,99504.06
2023-03-28T21:59:38.755Z,99508.56
2023-03-28T22:02:06.277Z,99504.06
2023-03-28T22:04:32.910Z,99512.50
2023-03-28T22:06:59.345Z,99509.31
2023-03-28T22:09:25.914Z,99508.91
2023-03-28T22:11:52.888Z,99505.34
2023-03-28T22:14:19.422Z,99507.50
2023-03-28T22:16:46.033Z,99503.03
2023-03-28T22:19:14.229Z,99507.63
2023-03-28T22:21:40.943Z,99505.75
2023-03-28T22:24:12.862Z,99505.00
2023-03-28T22:26:40.573Z,99489.13
2023-03-28T22:29:07.546Z,99500.66
2023-03-28T22:31:34.041Z,99454.41
2023-03-28T22:34:01.004Z,99503.47
2023-03-28T22:36:27.614Z,99508.72
2023-03-28T22:38:54.912Z,99491.09
2023-03-28T22:41:21.658Z,99490.16
2023-03-28T22:43:48.139Z,99491.53
2023-03-28T22:46:16.537Z,99464.19
2023-03-28T22:48:43.831Z,99473.28
2023-03-28T22:51:12.074Z,99462.06
2023-03-28T22:53:40.528Z,99481.16
2023-03-28T22:56:07.523Z,99485.38
2023-03-28T22:58:34.155Z,99460.53
2023-03-28T23:01:00.870Z,99478.53
2023-03-28T23:03:27.702Z,99475.78
2023-03-28T23:05:55.307Z,99483.16
2023-03-28T23:08:22.261Z,99489.16
2023-03-28T23:10:48.854Z,99476.44
2023-03-28T23:13:15.491Z,99473.81
2023-03-28T23:15:41.999Z,99463.41
2023-03-28T23:18:08.588Z,99443.44
2023-03-28T23:20:35.805Z,99465.94
2023-03-28T23:23:02.411Z,99459.72
2023-03-28T23:25:30.831Z,99466.38
2023-03-28T23:27:57.317Z,99458.34
2023-03-28T23:30:23.805Z,99467.59
2023-03-28T23:32:50.693Z,99469.69
2023-03-28T23:35:17.209Z,99468.66
2023-03-28T23:37:44.678Z,99463.59
2023-03-28T23:40:15.023Z,99464.38
2023-03-28T23:42:44.185Z,99454.56
2023-03-28T23:45:12.159Z,99468.84
2023-03-28T23:47:38.998Z,99465.41
2023-03-28T23:50:06.733Z,99459.19
2023-03-28T23:52:33.875Z,99470.22
2023-03-28T23:55:00.531Z,99475.13
2023-03-28T23:57:28.748Z,99484.75
2023-03-28T23:59:56.492Z,99467.94
